Time;durP1;ratioP1;P1;durP2;ratioP2;P2;SDS_P1;SDS_P2;PMS_P1;PMS_P2;Temp;Humidity;BMP_temperature;BMP_pressure;BME280_temperature;BME280_humidity;BME280_pressure;Samples;Min_cycle;Max_cycle;Signal;HPM_P1;HPM_P2
2024/02/20 00:03:58;;;;;;;15.75;2.55;;;5.70;99.90;;;;;;20703837;28;20935;-38
2024/02/20 00:13:59;;;;;;;16.88;2.63;;;5.70;99.90;;;;;;20705725;28;20892;-38
2024/02/20 00:23:59;;;;;;;18.70;2.65;;;5.60;99.90;;;;;;20666682;28;20133;-39
2024/02/20 00:34:01;;;;;;;15.63;2.40;;;5.60;99.90;;;;;;20706256;28;20215;-39
2024/02/20 00:44:01;;;;;;;18.33;2.85;;;5.70;99.90;;;;;;20701179;28;20242;-39
2024/02/20 00:54:03;;;;;;;18.80;2.50;;;5.80;99.90;;;;;;20698194;28;20037;-39
2024/02/20 01:04:04;;;;;;;15.55;2.60;;;5.90;99.90;;;;;;20684635;28;20050;-39
2024/02/20 01:14:05;;;;;;;18.25;3.63;;;6.10;99.90;;;;;;20692358;28;20132;-39
2024/02/20 01:24:06;;;;;;;19.90;3.03;;;6.20;99.90;;;;;;20666576;28;20640;-38
2024/02/20 01:34:06;;;;;;;29.77;3.67;;;6.30;99.90;;;;;;20677207;28;20676;-39
2024/02/20 01:44:07;;;;;;;20.88;3.42;;;6.40;99.90;;;;;;20680639;28;20038;-39
2024/02/20 01:54:07;;;;;;;19.45;2.85;;;6.40;99.90;;;;;;20683379;28;20117;-38
2024/02/20 02:04:08;;;;;;;22.73;3.80;;;6.50;99.90;;;;;;20678573;28;20046;-39
2024/02/20 02:14:09;;;;;;;22.95;3.25;;;6.60;99.90;;;;;;20688168;28;20061;-39
2024/02/20 02:24:10;;;;;;;25.23;3.03;;;6.50;99.90;;;;;;20678918;28;20497;-39
2024/02/20 02:34:12;;;;;;;16.42;2.83;;;6.50;99.90;;;;;;20675270;28;20409;-39
2024/02/20 02:44:13;;;;;;;14.65;2.45;;;6.50;99.90;;;;;;20672024;28;20060;-39
2024/02/20 02:54:13;;;;;;;13.27;2.55;;;6.50;99.90;;;;;;20707971;28;20481;-39
2024/02/20 03:04:14;;;;;;;17.90;2.50;;;6.50;99.90;;;;;;20700917;28;20065;-39
2024/02/20 03:14:16;;;;;;;24.48;2.83;;;6.60;99.90;;;;;;20709953;28;20033;-38
2024/02/20 03:24:17;;;;;;;18.70;3.53;;;6.60;99.90;;;;;;20693589;28;20374;-39
2024/02/20 03:34:17;;;;;;;15.73;2.58;;;6.70;99.90;;;;;;20698758;28;20045;-39
2024/02/20 03:44:18;;;;;;;15.23;2.70;;;6.70;99.90;;;;;;20676276;28;20421;-39
2024/02/20 03:54:19;;;;;;;17.00;2.45;;;6.60;99.90;;;;;;20700957;28;20465;-38
2024/02/20 04:04:20;;;;;;;13.07;2.65;;;6.70;99.90;;;;;;20682167;28;20037;-39
2024/02/20 04:14:20;;;;;;;19.17;3.28;;;6.70;99.90;;;;;;20682346;28;20034;-38
2024/02/20 04:24:21;;;;;;;12.67;2.63;;;6.70;99.90;;;;;;20678290;28;20367;-39
2024/02/20 04:34:21;;;;;;;19.92;3.28;;;6.80;99.90;;;;;;20687645;28;20204;-39
2024/02/20 04:44:23;;;;;;;20.25;3.50;;;7.00;99.90;;;;;;20678421;28;20046;-38
2024/02/20 04:54:24;;;;;;;24.27;3.78;;;7.00;99.90;;;;;;20675794;28;20029;-38
2024/02/20 05:04:24;;;;;;;22.23;4.20;;;7.10;99.90;;;;;;20672187;28;20042;-39
2024/02/20 05:14:25;;;;;;;24.45;3.90;;;7.20;99.90;;;;;;20681319;28;20178;-39
2024/02/20 05:24:26;;;;;;;26.50;3.60;;;7.20;99.90;;;;;;20682402;28;20052;-39
2024/02/20 05:34:26;;;;;;;33.35;5.10;;;7.40;99.90;;;;;;20691835;28;20460;-39
2024/02/20 05:44:27;;;;;;;21.70;3.67;;;7.40;99.90;;;;;;20683043;28;20151;-38
2024/02/20 05:54:28;;;;;;;23.40;3.80;;;7.60;99.90;;;;;;20691821;28;20081;-38
2024/02/20 06:04:28;;;;;;;17.20;3.50;;;7.50;99.90;;;;;;20661829;28;20489;-38
2024/02/20 06:14:29;;;;;;;20.75;3.85;;;7.30;99.90;;;;;;20688548;28;20051;-39
2024/02/20 06:24:31;;;;;;;19.65;3.22;;;7.30;99.90;;;;;;20689619;28;20168;-39
2024/02/20 06:34:31;;;;;;;14.88;2.78;;;7.30;99.90;;;;;;20709380;28;20113;-38
2024/02/20 06:44:32;;;;;;;18.90;3.42;;;7.20;99.90;;;;;;20693022;28;20045;-39
2024/02/20 06:54:32;;;;;;;19.95;3.75;;;7.10;99.90;;;;;;20702817;28;20144;-39
2024/02/20 07:04:35;;;;;;;16.48;4.03;;;7.00;99.90;;;;;;20678589;28;20037;-39
2024/02/20 07:14:36;;;;;;;18.33;3.53;;;7.00;99.90;;;;;;20688842;28;20469;-39
2024/02/20 07:24:37;;;;;;;22.75;4.32;;;7.10;99.90;;;;;;20681923;28;20060;-38
2024/02/20 07:34:40;;;;;;;28.73;5.32;;;7.10;99.90;;;;;;20688951;28;20058;-38
2024/02/20 07:44:41;;;;;;;20.95;4.28;;;7.10;99.90;;;;;;20688467;28;20042;-38
2024/02/20 07:54:42;;;;;;;19.80;4.50;;;7.10;99.90;;;;;;20694080;28;20041;-38
2024/02/20 08:04:45;;;;;;;21.10;5.03;;;7.10;99.90;;;;;;20683033;28;20062;-38
2024/02/20 08:14:46;;;;;;;28.52;5.68;;;7.20;99.90;;;;;;20663197;28;20449;-39
2024/02/20 08:24:47;;;;;;;24.48;5.43;;;7.30;99.90;;;;;;20678141;28;20146;-38
2024/02/20 08:34:48;;;;;;;29.38;5.85;;;7.50;99.90;;;;;;20680516;28;20626;-39
2024/02/20 08:44:48;;;;;;;33.33;5.75;;;7.70;99.90;;;;;;20676512;28;20042;-39
2024/02/20 08:54:49;;;;;;;23.13;6.57;;;7.60;99.90;;;;;;20698130;28;20045;-38
2024/02/20 09:04:50;;;;;;;32.00;7.25;;;7.70;99.90;;;;;;20687909;28;20042;-39
2024/02/20 09:14:51;;;;;;;34.55;7.03;;;7.80;99.90;;;;;;20680957;28;20226;-39
2024/02/20 09:24:52;;;;;;;24.42;5.40;;;8.10;99.90;;;;;;20674112;28;20454;-39
2024/02/20 09:34:53;;;;;;;28.48;5.40;;;8.30;99.90;;;;;;20686308;28;20046;-38
2024/02/20 09:44:55;;;;;;;30.20;5.00;;;8.60;99.90;;;;;;20687451;28;20045;-39
2024/02/20 09:54:55;;;;;;;26.33;4.93;;;8.80;99.90;;;;;;20674775;28;21533;-38
2024/02/20 10:04:56;;;;;;;23.52;5.22;;;9.10;99.90;;;;;;20677238;28;20501;-38
2024/02/20 10:15:07;;;;;;;32.25;5.75;;;9.10;99.90;;;;;;20685908;28;20034;-39
2024/02/20 10:25:12;;;;;;;26.83;5.57;;;9.30;98.70;;;;;;20683938;28;20034;-39
2024/02/20 10:35:12;;;;;;;23.05;5.25;;;9.40;95.00;;;;;;20677410;28;20078;-39
2024/02/20 10:45:13;;;;;;;25.10;4.83;;;9.50;91.90;;;;;;20678346;28;20099;-39
2024/02/20 10:55:14;;;;;;;24.90;4.95;;;9.60;82.90;;;;;;20678301;28;20503;-39
2024/02/20 11:05:17;;;;;;;20.75;5.88;;;9.80;68.10;;;;;;20677375;28;20042;-39
2024/02/20 11:15:22;;;;;;;23.38;4.80;;;9.90;55.30;;;;;;20682264;28;20041;-39
2024/02/20 11:25:29;;;;;;;20.58;5.05;;;10.20;39.50;;;;;;20670513;28;20084;-39
2024/02/20 11:35:32;;;;;;;29.67;5.50;;;10.40;29.20;;;;;;20677640;28;20041;-38
2024/02/20 11:45:34;;;;;;;23.48;4.63;;;10.70;22.60;;;;;;20688528;28;20041;-38
2024/02/20 11:55:38;;;;;;;21.42;4.85;;;10.90;9.10;;;;;;20684095;28;20129;-39
2024/02/20 12:05:40;;;;;;;24.55;5.13;;;11.10;6.40;;;;;;20679887;28;20611;-38
2024/02/20 12:15:43;;;;;;;25.02;3.85;;;11.50;1.00;;;;;;20683315;28;20054;-39
2024/02/20 12:25:43;;;;;;;20.33;3.58;;;11.70;1.00;;;;;;20678619;28;20326;-39
2024/02/20 12:35:44;;;;;;;20.90;4.50;;;11.70;1.00;;;;;;20678451;28;20069;-39
2024/02/20 12:45:45;;;;;;;18.75;4.50;;;11.50;1.00;;;;;;20671234;28;20056;-39
2024/02/20 12:55:46;;;;;;;20.00;4.07;;;11.80;1.00;;;;;;20667622;28;20133;-39
2024/02/20 13:05:46;;;;;;;16.45;3.80;;;12.40;1.00;;;;;;20679319;28;20040;-39
2024/02/20 13:15:47;;;;;;;23.43;4.20;;;12.40;1.00;;;;;;20677838;28;20213;-39
2024/02/20 13:25:48;;;;;;;19.92;4.43;;;11.80;1.00;;;;;;20668526;28;20045;-38
2024/02/20 13:35:48;;;;;;;21.40;6.53;;;11.60;1.00;;;;;;20669736;28;20052;-39
2024/02/20 13:45:52;;;;;;;24.27;6.17;;;11.20;1.00;;;;;;20666409;28;21157;-39
2024/02/20 13:55:53;;;;;;;28.88;6.05;;;10.90;1.00;;;;;;20666878;28;20038;-39
2024/02/20 14:05:54;;;;;;;33.08;7.78;;;10.90;1.00;;;;;;20654923;28;20533;-39
2024/02/20 14:15:54;;;;;;;24.75;8.43;;;10.90;1.00;;;;;;20659164;28;20470;-39
2024/02/20 14:25:55;;;;;;;25.13;7.28;;;10.90;1.00;;;;;;20660176;28;20038;-38
2024/02/20 14:35:56;;;;;;;21.88;8.38;;;10.90;1.00;;;;;;20664739;28;20132;-39
2024/02/20 14:45:57;;;;;;;27.98;10.45;;;10.80;1.00;;;;;;20660256;28;20771;-38
2024/02/20 14:55:58;;;;;;;33.33;11.73;;;10.60;1.00;;;;;;20674800;28;20046;-38
2024/02/20 15:05:58;;;;;;;28.10;11.65;;;10.60;1.00;;;;;;20686835;28;20048;-38
2024/02/20 15:15:59;;;;;;;34.65;13.07;;;10.60;1.00;;;;;;20694510;28;20042;-38
2024/02/20 15:26:06;;;;;;;39.45;13.63;;;10.50;1.40;;;;;;20696117;28;20132;-38
2024/02/20 15:36:09;;;;;;;32.03;11.37;;;10.50;5.10;;;;;;20692363;28;20042;-39
2024/02/20 15:46:10;;;;;;;27.17;8.95;;;10.50;6.40;;;;;;20675941;28;20061;-38
2024/02/20 15:56:10;;;;;;;27.20;8.25;;;10.50;7.30;;;;;;20690917;28;20040;-38
2024/02/20 16:06:11;;;;;;;28.25;8.13;;;10.50;9.10;;;;;;20696391;28;20099;-38
2024/02/20 16:16:12;;;;;;;32.50;7.53;;;10.50;13.10;;;;;;20693683;28;20038;-38
2024/02/20 16:26:18;;;;;;;30.52;6.65;;;10.50;16.50;;;;;;20687307;28;20092;-38
2024/02/20 16:36:19;;;;;;;28.92;6.38;;;10.50;20.10;;;;;;20685428;28;20097;-38
2024/02/20 16:46:19;;;;;;;22.10;5.50;;;10.50;19.30;;;;;;20671050;28;20096;-38
2024/02/20 16:56:20;;;;;;;36.27;7.63;;;10.50;21.50;;;;;;20675333;28;20041;-38
2024/02/20 17:06:21;;;;;;;33.90;6.35;;;10.50;23.70;;;;;;20691946;28;20512;-38
2024/02/20 17:16:21;;;;;;;24.33;5.65;;;10.50;24.60;;;;;;20691212;28;20052;-38
2024/02/20 17:26:22;;;;;;;22.55;4.72;;;10.50;25.30;;;;;;20686701;28;20493;-38
2024/02/20 17:36:23;;;;;;;26.08;5.13;;;10.40;30.70;;;;;;20672635;28;20041;-38
2024/02/20 17:46:23;;;;;;;34.55;6.35;;;10.30;38.50;;;;;;20685870;28;20379;-38
2024/02/20 17:56:24;;;;;;;29.00;4.80;;;10.30;40.70;;;;;;20687498;28;20045;-39
2024/02/20 18:06:25;;;;;;;18.60;5.55;;;10.30;43.40;;;;;;20681124;28;20049;-38
2024/02/20 18:16:26;;;;;;;24.23;6.70;;;10.40;37.60;;;;;;20686172;28;20127;-38
2024/02/20 18:26:27;;;;;;;24.80;5.97;;;10.50;33.50;;;;;;20704009;28;20042;-38
2024/02/20 18:36:27;;;;;;;21.17;5.90;;;10.50;31.10;;;;;;20700436;28;20096;-38
2024/02/20 18:46:28;;;;;;;24.02;7.00;;;10.40;37.20;;;;;;20700958;28;20066;-38
2024/02/20 18:56:29;;;;;;;27.15;7.47;;;10.40;49.40;;;;;;20704691;28;20034;-38
2024/02/20 19:06:29;;;;;;;30.02;6.35;;;10.40;53.80;;;;;;20684300;28;20042;-38
2024/02/20 19:16:30;;;;;;;26.67;5.20;;;10.40;56.80;;;;;;20705158;28;20045;-38
2024/02/20 19:26:34;;;;;;;25.65;5.25;;;10.30;58.70;;;;;;20686187;28;20033;-38
2024/02/20 19:36:37;;;;;;;22.55;5.78;;;10.30;52.00;;;;;;20698459;28;20046;-38
2024/02/20 19:46:38;;;;;;;28.17;6.28;;;10.30;56.20;;;;;;20691878;28;20053;-38
2024/02/20 19:56:39;;;;;;;33.45;7.25;;;10.30;61.00;;;;;;20699975;28;20034;-38
2024/02/20 20:06:44;;;;;;;26.05;7.40;;;10.30;59.70;;;;;;20696356;28;20124;-38
2024/02/20 20:16:44;;;;;;;23.95;8.02;;;10.20;69.50;;;;;;20699202;28;20049;-38
2024/02/20 20:26:45;;;;;;;29.23;9.43;;;10.30;71.30;;;;;;20686588;28;20037;-38
2024/02/20 20:36:46;;;;;;;18.80;9.05;;;10.40;72.70;;;;;;20689388;28;20049;-38
2024/02/20 20:46:46;;;;;;;17.30;7.70;;;10.40;60.20;;;;;;20666965;28;20077;-38
2024/02/20 20:56:47;;;;;;;14.20;7.20;;;10.50;50.60;;;;;;20690264;28;20516;-38
2024/02/20 21:06:48;;;;;;;13.27;7.00;;;10.60;49.90;;;;;;20688162;28;20188;-38
2024/02/20 21:16:49;;;;;;;17.60;7.55;;;10.50;45.00;;;;;;20676535;28;20478;-38
2024/02/20 21:26:49;;;;;;;14.30;5.22;;;10.60;42.50;;;;;;20683884;28;20041;-38
2024/02/20 21:36:50;;;;;;;10.23;4.32;;;10.60;29.20;;;;;;20684046;28;20569;-38
2024/02/20 21:46:50;;;;;;;8.40;3.05;;;10.70;26.30;;;;;;20685944;28;20053;-38
2024/02/20 21:56:51;;;;;;;14.97;3.83;;;10.70;19.80;;;;;;20694325;28;20030;-38
2024/02/20 22:06:51;;;;;;;7.88;2.33;;;10.70;17.70;;;;;;20697629;28;20413;-38
2024/02/20 22:16:52;;;;;;;9.10;2.10;;;10.50;15.80;;;;;;20688522;28;20068;-38
2024/02/20 22:26:53;;;;;;;9.00;1.88;;;10.50;15.90;;;;;;20688281;28;20111;-38
2024/02/20 22:36:54;;;;;;;13.55;2.30;;;10.50;16.20;;;;;;20685345;28;20452;-38
2024/02/20 22:46:55;;;;;;;16.77;3.13;;;10.50;17.90;;;;;;20673803;28;20042;-38
2024/02/20 22:56:55;;;;;;;10.80;2.75;;;10.30;21.10;;;;;;20679225;28;20088;-38
2024/02/20 23:06:56;;;;;;;11.02;3.58;;;10.20;25.50;;;;;;20680796;28;20049;-38
2024/02/20 23:16:56;;;;;;;16.92;4.30;;;10.00;27.80;;;;;;20688714;28;20616;-37
2024/02/20 23:26:57;;;;;;;22.42;5.18;;;10.00;34.20;;;;;;20688856;28;20076;-38
2024/02/20 23:36:59;;;;;;;14.27;4.03;;;10.00;35.10;;;;;;20683454;28;20104;-38
2024/02/20 23:47:00;;;;;;;17.70;3.45;;;10.10;35.90;;;;;;20689915;28;20050;-37
2024/02/20 23:57:00;;;;;;;12.43;2.97;;;10.10;37.30;;;;;;20689221;28;20034;-38
